createdAt,value
2018-02-11T00:00:00.567Z,29.95
2018-02-11T00:02:27.160Z,29.15
2018-02-11T00:04:53.751Z,29.45
2018-02-11T00:07:20.346Z,32.65
2018-02-11T00:09:46.956Z,31.98
2018-02-11T00:12:13.544Z,32.53
2018-02-11T00:14:40.129Z,35.42
2018-02-11T00:17:06.726Z,34.10
2018-02-11T00:19:33.319Z,36.53
2018-02-11T00:21:59.911Z,33.42
2018-02-11T00:24:26.506Z,37.20
2018-02-11T00:26:53.089Z,33.70
2018-02-11T00:29:19.676Z,38.17
2018-02-11T00:31:46.293Z,33.85
2018-02-11T00:34:12.880Z,34.38
2018-02-11T00:36:45.220Z,35.45
2018-02-11T00:39:12.103Z,33.15
2018-02-11T00:41:38.690Z,38.47
2018-02-11T00:44:05.271Z,38.78
2018-02-11T00:46:32.235Z,34.53
2018-02-11T00:48:58.814Z,36.55
2018-02-11T00:51:25.403Z,40.40
2018-02-11T00:53:52.015Z,35.85
2018-02-11T00:56:18.605Z,34.33
2018-02-11T00:58:45.200Z,35.88
2018-02-11T01:01:11.828Z,37.30
2018-02-11T01:03:38.406Z,35.00
2018-02-11T01:06:04.994Z,34.22
2018-02-11T01:08:31.612Z,38.80
2018-02-11T01:10:58.191Z,34.72
2018-02-11T01:13:24.792Z,32.50
2018-02-11T01:15:51.399Z,33.70
2018-02-11T01:18:17.978Z,34.63
2018-02-11T01:20:44.550Z,32.55
2018-02-11T01:23:11.155Z,36.40
2018-02-11T01:25:37.735Z,35.03
2018-02-11T01:28:04.311Z,30.33
2018-02-11T01:30:30.918Z,33.55
2018-02-11T01:32:57.499Z,32.88
2018-02-11T01:35:24.075Z,33.70
2018-02-11T01:37:50.680Z,35.03
2018-02-11T01:40:17.275Z,37.90
2018-02-11T01:42:43.855Z,32.40
2018-02-11T01:45:10.455Z,33.28
2018-02-11T01:47:37.031Z,34.90
2018-02-11T01:50:09.878Z,33.33
2018-02-11T01:52:36.459Z,33.28
2018-02-11T01:55:03.039Z,31.58
2018-02-11T01:57:29.923Z,29.85
2018-02-11T01:59:56.506Z,28.15
2018-02-11T02:02:23.085Z,33.13
2018-02-11T02:04:49.696Z,30.02
2018-02-11T02:07:16.279Z,33.97
2018-02-11T02:09:42.854Z,32.97
2018-02-11T02:12:09.467Z,32.40
2018-02-11T02:14:36.047Z,35.15
2018-02-11T02:17:03.047Z,33.35
2018-02-11T02:19:29.660Z,32.78
2018-02-11T02:21:56.241Z,31.02
2018-02-11T02:24:22.818Z,33.70
2018-02-11T02:26:49.431Z,36.60
2018-02-11T02:29:16.014Z,32.30
2018-02-11T02:31:42.611Z,33.05
2018-02-11T02:34:09.211Z,34.55
2018-02-11T02:36:35.802Z,32.75
2018-02-11T02:39:02.375Z,31.90
2018-02-11T02:41:29.230Z,34.15
2018-02-11T02:43:55.819Z,32.83
2018-02-11T02:46:22.403Z,28.55
2018-02-11T02:48:49.019Z,33.00
2018-02-11T02:51:15.603Z,30.25
2018-02-11T02:53:42.179Z,29.55
2018-02-11T02:56:08.779Z,31.00
2018-02-11T02:58:35.356Z,31.45
2018-02-11T03:01:01.946Z,33.25
2018-02-11T03:03:28.746Z,30.83
2018-02-11T03:05:55.332Z,30.40
2018-02-11T03:08:21.915Z,30.85
2018-02-11T03:10:49.333Z,33.22
2018-02-11T03:13:15.910Z,30.70
2018-02-11T03:15:42.498Z,34.92
2018-02-11T03:18:09.283Z,32.17
2018-02-11T03:20:35.868Z,28.92
2018-02-11T03:23:02.448Z,31.27
2018-02-11T03:25:29.064Z,29.50
2018-02-11T03:27:55.643Z,28.70
2018-02-11T03:30:22.222Z,31.20
2018-02-11T03:32:48.840Z,28.98
2018-02-11T03:35:16.073Z,28.83
2018-02-11T03:37:42.658Z,26.77
2018-02-11T03:40:09.254Z,30.00
2018-02-11T03:42:35.832Z,30.40
2018-02-11T03:45:03.098Z,29.90
2018-02-11T03:47:29.683Z,28.62
2018-02-11T03:49:56.261Z,28.50
2018-02-11T03:52:22.882Z,27.75
2018-02-11T03:54:49.468Z,27.60
2018-02-11T03:57:16.060Z,27.45
2018-02-11T03:59:42.849Z,25.67
2018-02-11T04:02:09.435Z,26.40
2018-02-11T04:04:36.025Z,27.05
2018-02-11T04:07:02.619Z,24.65
2018-02-11T04:09:29.198Z,26.55
2018-02-11T04:11:55.783Z,23.92
2018-02-11T04:14:22.732Z,24.55
2018-02-11T04:16:49.313Z,24.48
2018-02-11T04:19:15.899Z,24.52
2018-02-11T04:21:42.514Z,25.37
2018-02-11T04:24:09.097Z,24.35
2018-02-11T04:26:35.685Z,23.87
2018-02-11T04:29:02.372Z,24.83
2018-02-11T04:31:28.955Z,20.77
2018-02-11T04:33:55.541Z,24.48
2018-02-11T04:36:22.159Z,23.40
2018-02-11T04:38:48.906Z,21.37
2018-02-11T04:41:15.511Z,21.58
2018-02-11T04:43:42.135Z,22.33
2018-02-11T04:46:08.706Z,21.37
2018-02-11T04:48:35.287Z,21.12
2018-02-11T04:51:01.909Z,19.80
2018-02-11T04:53:28.496Z,20.10
2018-02-11T04:55:55.075Z,20.70
2018-02-11T04:58:21.675Z,19.27
2018-02-11T05:00:48.263Z,19.17
2018-02-11T05:03:14.848Z,20.88
2018-02-11T05:05:41.619Z,19.40
2018-02-11T05:08:08.196Z,18.37
2018-02-11T05:10:34.780Z,19.60
2018-02-11T05:13:01.385Z,17.67
2018-02-11T05:15:27.961Z,19.10
2018-02-11T05:17:54.552Z,19.77
2018-02-11T05:20:21.395Z,18.65
2018-02-11T05:22:47.987Z,19.25
2018-02-11T05:25:14.566Z,17.00
2018-02-11T05:27:41.396Z,19.12
2018-02-11T05:30:07.988Z,18.67
2018-02-11T05:32:34.563Z,19.90
2018-02-11T05:35:01.155Z,17.45
2018-02-11T05:37:27.753Z,19.05
2018-02-11T05:39:54.363Z,17.98
2018-02-11T05:42:20.953Z,18.42
2018-02-11T05:44:47.532Z,18.20
2018-02-11T05:47:14.495Z,16.08
2018-02-11T05:49:41.084Z,17.67
2018-02-11T05:52:07.667Z,16.95
2018-02-11T05:54:34.276Z,19.00
2018-02-11T05:57:00.868Z,17.35
2018-02-11T05:59:27.458Z,16.90
2018-02-11T06:01:54.310Z,16.15
2018-02-11T06:04:20.985Z,18.87
2018-02-11T06:06:47.551Z,17.73
2018-02-11T06:09:14.147Z,17.42
2018-02-11T06:11:40.732Z,15.00
2018-02-11T06:14:07.311Z,19.17
2018-02-11T06:16:34.066Z,16.52
2018-02-11T06:19:00.656Z,15.32
2018-02-11T06:21:27.247Z,17.60
2018-02-11T06:23:53.844Z,16.00
2018-02-11T06:26:20.428Z,16.90
2018-02-11T06:28:47.010Z,17.65
2018-02-11T06:31:13.876Z,15.50
2018-02-11T06:33:40.456Z,17.77
2018-02-11T06:36:07.036Z,15.48
2018-02-11T06:38:33.639Z,16.62
2018-02-11T06:41:00.328Z,15.50
2018-02-11T06:43:26.895Z,15.85
2018-02-11T06:45:53.744Z,16.37
2018-02-11T06:48:20.328Z,14.05
2018-02-11T06:50:46.911Z,15.52
2018-02-11T06:53:13.606Z,14.95
2018-02-11T06:55:40.186Z,15.05
2018-02-11T06:58:06.775Z,17.40
2018-02-11T07:00:33.390Z,16.85
2018-02-11T07:02:59.974Z,16.83
2018-02-11T07:05:26.550Z,15.75
2018-02-11T07:07:53.163Z,14.05
2018-02-11T07:10:19.748Z,18.17
2018-02-11T07:12:46.334Z,16.80
2018-02-11T07:15:13.231Z,16.30
2018-02-11T07:17:39.814Z,16.80
2018-02-11T07:20:06.405Z,17.48
2018-02-11T07:22:32.999Z,14.40
2018-02-11T07:24:59.580Z,16.85
2018-02-11T07:27:26.159Z,15.15
2018-02-11T07:29:52.763Z,17.05
2018-02-11T07:32:19.343Z,16.45
2018-02-11T07:34:46.076Z,19.00
2018-02-11T07:37:12.695Z,14.70
2018-02-11T07:39:39.283Z,17.20
2018-02-11T07:42:05.868Z,18.73
2018-02-11T07:44:32.474Z,16.40
2018-02-11T07:46:59.051Z,17.35
2018-02-11T07:49:25.639Z,17.58
2018-02-11T07:51:52.256Z,16.27
2018-02-11T07:54:18.844Z,15.98
2018-02-11T07:56:45.425Z,14.27
2018-02-11T07:59:12.041Z,15.98
2018-02-11T08:01:38.611Z,15.48
2018-02-11T08:04:05.200Z,15.95
2018-02-11T08:06:32.428Z,18.67
2018-02-11T08:08:59.011Z,14.15
2018-02-11T08:11:25.597Z,15.55
2018-02-11T08:13:52.220Z,16.00
2018-02-11T08:16:18.806Z,15.27
2018-02-11T08:18:45.393Z,16.95
2018-02-11T08:21:11.984Z,15.98
2018-02-11T08:23:38.571Z,14.82
2018-02-11T08:26:05.155Z,16.92
2018-02-11T08:28:31.744Z,16.45
2018-02-11T08:30:58.361Z,16.17
2018-02-11T08:33:24.969Z,15.23
2018-02-11T08:35:51.552Z,14.43
2018-02-11T08:38:18.132Z,16.95
2018-02-11T08:40:44.732Z,15.98
2018-02-11T08:43:11.316Z,12.05
2018-02-11T08:45:37.914Z,14.80
2018-02-11T08:48:04.516Z,13.35
2018-02-11T08:50:31.132Z,14.60
2018-02-11T08:52:57.715Z,15.73
2018-02-11T08:55:24.301Z,16.45
2018-02-11T08:57:50.900Z,16.33
2018-02-11T09:00:17.483Z,16.02
2018-02-11T09:02:44.066Z,18.15
2018-02-11T09:05:10.682Z,20.37
2018-02-11T09:07:40.375Z,19.35
2018-02-11T09:10:07.164Z,16.20
2018-02-11T09:12:33.731Z,16.35
2018-02-11T09:15:00.334Z,16.25
2018-02-11T09:17:27.015Z,18.55
2018-02-11T09:19:53.736Z,16.58
2018-02-11T09:22:20.307Z,16.20
2018-02-11T09:24:46.924Z,15.00
2018-02-11T09:27:13.507Z,13.62
2018-02-11T09:29:40.092Z,15.90
2018-02-11T09:32:06.684Z,18.23
2018-02-11T09:34:33.271Z,18.20
2018-02-11T09:36:59.856Z,18.50
2018-02-11T09:39:26.458Z,18.70
2018-02-11T09:41:53.061Z,17.17
2018-02-11T09:44:19.647Z,18.35
2018-02-11T09:46:46.492Z,17.08
2018-02-11T09:49:13.097Z,16.00
2018-02-11T09:51:39.695Z,17.85
2018-02-11T09:54:06.280Z,16.15
2018-02-11T09:56:32.861Z,13.98
2018-02-11T09:58:59.453Z,13.20
2018-02-11T10:01:26.058Z,15.27
2018-02-11T10:03:52.643Z,12.05
2018-02-11T10:06:19.261Z,15.00
2018-02-11T10:08:45.951Z,12.10
2018-02-11T10:11:12.534Z,12.13
2018-02-11T10:13:39.119Z,15.68
2018-02-11T10:16:05.741Z,15.55
2018-02-11T10:18:32.319Z,12.68
2018-02-11T10:20:58.904Z,12.88
2018-02-11T10:23:25.492Z,13.50
2018-02-11T10:25:52.096Z,12.20
2018-02-11T10:28:18.751Z,11.48
2018-02-11T10:30:45.317Z,8.63
2018-02-11T10:33:12.123Z,12.60
2018-02-11T10:35:38.713Z,13.35
2018-02-11T10:38:05.304Z,11.20
2018-02-11T10:40:32.032Z,11.68
2018-02-11T10:42:58.600Z,11.50
2018-02-11T10:45:25.217Z,12.63
2018-02-11T10:47:51.879Z,12.43
2018-02-11T10:50:18.454Z,12.75
2018-02-11T10:52:45.041Z,11.55
2018-02-11T10:55:11.943Z,11.15
2018-02-11T10:57:38.604Z,13.18
2018-02-11T11:00:05.212Z,14.30
2018-02-11T11:02:32.071Z,14.10
2018-02-11T11:04:58.671Z,11.55
2018-02-11T11:07:25.267Z,13.30
2018-02-11T11:09:51.969Z,16.12
2018-02-11T11:12:18.555Z,14.43
2018-02-11T11:14:45.243Z,12.50
2018-02-11T11:17:11.924Z,9.95
2018-02-11T11:19:38.504Z,10.27
2018-02-11T11:22:05.356Z,11.75
2018-02-11T11:24:32.080Z,18.95
2018-02-11T11:26:58.756Z,10.27
2018-02-11T11:29:25.363Z,11.25
2018-02-11T11:31:51.968Z,11.20
2018-02-11T11:34:18.697Z,12.00
2018-02-11T11:36:45.294Z,10.02
2018-02-11T11:39:11.843Z,8.90
2018-02-11T11:41:38.432Z,10.07
2018-02-11T11:44:05.283Z,7.25
2018-02-11T11:46:31.886Z,9.70
2018-02-11T11:48:58.507Z,8.93
2018-02-11T11:51:25.198Z,9.18
2018-02-11T11:53:51.835Z,9.55
2018-02-11T11:56:18.431Z,9.05
2018-02-11T11:58:45.020Z,10.38
2018-02-11T12:01:11.611Z,10.30
2018-02-11T12:03:38.216Z,12.00
2018-02-11T12:06:04.911Z,9.73
2018-02-11T12:08:31.552Z,10.75
2018-02-11T12:10:58.160Z,11.07
2018-02-11T12:13:24.743Z,11.27
2018-02-11T12:15:51.360Z,10.43
2018-02-11T12:18:17.978Z,11.63
2018-02-11T12:20:44.600Z,11.27
2018-02-11T12:23:11.183Z,11.12
2018-02-11T12:25:37.777Z,10.10
2018-02-11T12:28:04.423Z,11.38
2018-02-11T12:30:31.069Z,11.57
2018-02-11T12:32:57.661Z,10.73
2018-02-11T12:35:24.268Z,10.20
2018-02-11T12:37:50.869Z,10.15
2018-02-11T12:40:17.462Z,10.27
2018-02-11T12:42:44.060Z,9.73
2018-02-11T12:45:10.652Z,10.32
2018-02-11T12:47:37.304Z,9.85
2018-02-11T12:50:03.883Z,8.40
2018-02-11T12:52:30.486Z,9.75
2018-02-11T12:54:57.083Z,10.30
2018-02-11T12:57:23.681Z,9.13
2018-02-11T12:59:50.274Z,9.75
2018-02-11T13:02:16.886Z,11.38
2018-02-11T13:04:43.479Z,10.02
2018-02-11T13:07:10.063Z,10.15
2018-02-11T13:09:36.667Z,9.50
2018-02-11T13:12:03.252Z,9.88
2018-02-11T13:14:29.844Z,9.65
2018-02-11T13:16:56.451Z,8.63
2018-02-11T13:19:23.043Z,10.63
2018-02-11T13:21:49.635Z,16.25
2018-02-11T13:24:16.331Z,10.80
2018-02-11T13:26:42.903Z,9.70
2018-02-11T13:29:09.496Z,8.35
2018-02-11T13:31:36.247Z,9.23
2018-02-11T13:34:02.834Z,9.60
2018-02-11T13:36:29.439Z,9.30
2018-02-11T13:38:56.039Z,8.07
2018-02-11T13:41:22.646Z,8.43
2018-02-11T13:43:49.219Z,7.90
2018-02-11T13:46:15.807Z,10.63
2018-02-11T13:48:42.428Z,8.35
2018-02-11T13:51:09.007Z,9.25
2018-02-11T13:53:35.593Z,8.30
2018-02-11T13:56:02.387Z,8.23
2018-02-11T13:58:28.977Z,8.70
2018-02-11T14:00:55.559Z,8.43
2018-02-11T14:03:22.139Z,9.33
2018-02-11T14:05:48.722Z,7.80
2018-02-11T14:08:15.308Z,7.17
2018-02-11T14:10:41.888Z,8.27
2018-02-11T14:13:08.468Z,8.20
2018-02-11T14:15:35.052Z,7.80
2018-02-11T14:18:01.628Z,7.57
2018-02-11T14:20:28.199Z,7.73
2018-02-11T14:22:55.071Z,7.43
2018-02-11T14:25:21.655Z,7.90
2018-02-11T14:27:48.219Z,7.20
2018-02-11T14:30:14.824Z,6.60
2018-02-11T14:32:41.411Z,6.67
2018-02-11T14:35:07.983Z,6.90
2018-02-11T14:37:34.565Z,6.13
2018-02-11T14:40:01.136Z,5.70
2018-02-11T14:42:27.716Z,5.93
2018-02-11T14:44:54.299Z,6.77
2018-02-11T14:47:20.867Z,6.50
2018-02-11T14:49:47.446Z,6.17
2018-02-11T14:52:14.061Z,6.77
2018-02-11T14:54:40.633Z,6.30
2018-02-11T14:57:07.208Z,6.10
2018-02-11T14:59:33.817Z,6.63
2018-02-11T15:02:00.400Z,5.70
2018-02-11T15:04:26.969Z,6.00
2018-02-11T15:06:53.900Z,6.23
2018-02-11T15:09:20.487Z,6.20
2018-02-11T15:11:47.095Z,6.10
2018-02-11T15:14:13.673Z,7.00
2018-02-11T15:16:40.258Z,7.17
2018-02-11T15:19:06.832Z,6.60
2018-02-11T15:21:33.431Z,6.23
2018-02-11T15:24:00.010Z,6.30
2018-02-11T15:26:26.590Z,6.63
2018-02-11T15:28:53.520Z,5.30
2018-02-11T15:31:20.097Z,6.60
2018-02-11T15:33:46.677Z,5.40
2018-02-11T15:36:13.259Z,6.10
2018-02-11T15:38:39.842Z,6.40
2018-02-11T15:41:06.415Z,7.20
2018-02-11T15:43:33.300Z,5.73
2018-02-11T15:45:59.879Z,5.53
2018-02-11T15:48:26.456Z,5.50
2018-02-11T15:50:53.282Z,5.43
2018-02-11T15:53:19.827Z,4.43
2018-02-11T15:55:46.407Z,5.93
2018-02-11T15:58:12.990Z,4.70
2018-02-11T16:03:12.896Z,5.37
2018-02-11T16:05:39.471Z,4.17
2018-02-11T16:08:06.052Z,4.17
2018-02-11T16:10:32.658Z,3.63
2018-02-11T16:12:59.228Z,3.90
2018-02-11T16:15:25.847Z,3.10
2018-02-11T16:17:52.400Z,3.40
2018-02-11T16:20:18.972Z,3.37
2018-02-11T16:22:45.552Z,3.73
2018-02-11T16:25:12.127Z,3.57
2018-02-11T16:27:38.731Z,3.60
2018-02-11T16:30:05.320Z,3.60
2018-02-11T16:32:31.896Z,4.87
2018-02-11T16:34:58.835Z,3.20
2018-02-11T16:37:25.415Z,3.43
2018-02-11T16:39:51.992Z,3.93
2018-02-11T16:42:18.584Z,3.80
2018-02-11T16:44:45.168Z,4.03
2018-02-11T16:47:11.736Z,4.03
2018-02-11T16:49:39.678Z,4.33
2018-02-11T16:52:06.251Z,4.77
2018-02-11T16:54:32.836Z,4.85
2018-02-11T16:56:59.448Z,3.90
2018-02-11T16:59:26.032Z,3.78
2018-02-11T17:01:52.624Z,4.10
2018-02-11T17:04:19.245Z,4.30
2018-02-11T17:06:45.865Z,4.30
2018-02-11T17:09:12.426Z,3.80
2018-02-11T17:11:38.995Z,4.15
2018-02-11T17:14:05.580Z,3.20
2018-02-11T17:16:32.159Z,4.13
2018-02-11T17:18:58.759Z,3.73
2018-02-11T17:21:25.355Z,4.30
2018-02-11T17:23:51.941Z,3.17
2018-02-11T17:26:18.529Z,3.95
2018-02-11T17:28:45.112Z,3.57
2018-02-11T17:31:11.967Z,3.37
2018-02-11T17:33:38.559Z,4.35
2018-02-11T17:36:05.151Z,4.22
2018-02-11T17:38:31.982Z,4.10
2018-02-11T17:40:58.570Z,4.03
2018-02-11T17:43:25.156Z,4.35
2018-02-11T17:45:51.759Z,4.25
2018-02-11T17:48:18.344Z,4.93
2018-02-11T17:50:44.934Z,4.15
2018-02-11T17:53:11.519Z,4.90
2018-02-11T17:55:38.107Z,4.00
2018-02-11T17:58:04.723Z,4.65
2018-02-11T18:00:31.310Z,3.83
2018-02-11T18:02:57.899Z,4.75
2018-02-11T18:05:24.513Z,3.25
2018-02-11T18:07:52.071Z,3.85
2018-02-11T18:10:18.655Z,4.35
2018-02-11T18:12:45.276Z,4.35
2018-02-11T18:15:11.856Z,3.40
2018-02-11T18:17:38.460Z,4.22
2018-02-11T18:20:05.064Z,3.50
2018-02-11T18:22:31.643Z,3.70
2018-02-11T18:24:58.228Z,3.53
2018-02-11T18:27:24.834Z,4.75
2018-02-11T18:29:51.427Z,4.15
2018-02-11T18:32:18.031Z,3.62
2018-02-11T18:34:44.619Z,4.62
2018-02-11T18:37:11.224Z,4.25
2018-02-11T18:39:37.815Z,4.15
2018-02-11T18:42:04.408Z,3.83
2018-02-11T18:44:30.997Z,3.97
2018-02-11T18:46:57.785Z,4.78
2018-02-11T18:49:24.371Z,4.40
2018-02-11T18:51:51.186Z,5.80
2018-02-11T18:54:18.794Z,4.55
2018-02-11T18:56:45.369Z,4.07
2018-02-11T18:59:12.327Z,4.97
2018-02-11T19:01:38.826Z,4.72
2018-02-11T19:04:05.446Z,5.05
2018-02-11T19:06:32.109Z,4.10
2018-02-11T19:08:58.698Z,4.62
2018-02-11T19:11:25.305Z,4.32
2018-02-11T19:13:51.886Z,4.40
2018-02-11T19:16:18.470Z,5.22
2018-02-11T19:18:45.072Z,4.70
2018-02-11T19:21:11.656Z,4.80
2018-02-11T19:23:38.252Z,4.65
2018-02-11T19:26:05.237Z,3.42
2018-02-11T19:28:31.779Z,4.60
2018-02-11T19:30:58.406Z,4.65
2018-02-11T19:33:25.004Z,3.78
2018-02-11T19:35:51.600Z,5.55
2018-02-11T19:38:18.500Z,4.00
2018-02-11T19:40:45.091Z,4.35
2018-02-11T19:43:11.671Z,3.50
2018-02-11T19:45:38.380Z,4.32
2018-02-11T19:48:04.967Z,4.47
2018-02-11T19:50:31.554Z,4.00
2018-02-11T19:52:58.412Z,4.12
2018-02-11T19:55:25.263Z,4.50
2018-02-11T19:57:51.823Z,5.35
2018-02-11T20:00:18.431Z,5.20
2018-02-11T20:02:45.022Z,4.15
2018-02-11T20:05:11.618Z,4.50
2018-02-11T20:07:38.221Z,3.97
2018-02-11T20:10:04.808Z,4.55
2018-02-11T20:12:31.398Z,4.12
2018-02-11T20:14:58.244Z,4.40
2018-02-11T20:17:24.833Z,4.50
2018-02-11T20:19:51.428Z,5.45
2018-02-11T20:22:18.235Z,6.15
2018-02-11T20:24:44.837Z,11.32
2018-02-11T20:27:11.423Z,5.10
2018-02-11T20:29:38.039Z,4.82
2018-02-11T20:32:04.636Z,4.32
2018-02-11T20:34:31.222Z,4.57
2018-02-11T20:36:58.041Z,4.05
2018-02-11T20:39:24.628Z,4.80
2018-02-11T20:41:51.222Z,5.10
2018-02-11T20:44:17.811Z,3.75
2018-02-11T20:46:44.392Z,5.03
2018-02-11T20:49:10.999Z,4.68
2018-02-11T20:51:37.585Z,5.75
2018-02-11T20:54:04.278Z,4.53
2018-02-11T20:56:31.236Z,5.62
2018-02-11T20:58:57.836Z,5.00
2018-02-11T21:01:24.419Z,4.20
2018-02-11T21:03:51.036Z,5.57
2018-02-11T21:06:17.614Z,6.10
2018-02-11T21:08:44.196Z,5.25
2018-02-11T21:11:10.807Z,4.82
2018-02-11T21:13:37.384Z,4.47
2018-02-11T21:16:03.970Z,4.80
2018-02-11T21:18:30.588Z,4.05
2018-02-11T21:20:57.175Z,3.90
2018-02-11T21:23:23.763Z,4.03
2018-02-11T21:25:50.487Z,4.95
2018-02-11T21:28:17.113Z,5.28
2018-02-11T21:30:43.648Z,4.80
2018-02-11T21:33:10.274Z,6.12
2018-02-11T21:35:36.853Z,4.37
2018-02-11T21:38:03.453Z,4.40
2018-02-11T21:40:30.044Z,5.12
2018-02-11T21:42:56.631Z,4.53
2018-02-11T21:45:23.393Z,4.55
2018-02-11T21:47:50.293Z,5.35
2018-02-11T21:50:16.870Z,4.00
2018-02-11T21:52:43.456Z,5.00
2018-02-11T21:55:10.230Z,4.43
2018-02-11T21:57:36.806Z,4.95
2018-02-11T22:00:03.500Z,4.93
2018-02-11T22:02:30.104Z,4.90
2018-02-11T22:04:56.681Z,3.87
2018-02-11T22:07:23.376Z,4.10
2018-02-11T22:09:49.959Z,5.20
2018-02-11T22:12:16.543Z,7.25
2018-02-11T22:14:43.454Z,3.35
2018-02-11T22:17:10.041Z,5.00
2018-02-11T22:19:36.623Z,5.55
2018-02-11T22:22:03.311Z,4.68
2018-02-11T22:24:29.986Z,4.45
2018-02-11T22:26:56.560Z,5.20
2018-02-11T22:29:23.159Z,4.75
2018-02-11T22:31:49.848Z,3.97
2018-02-11T22:34:16.406Z,4.50
2018-02-11T22:36:43.015Z,4.40
2018-02-11T22:39:09.596Z,4.07
2018-02-11T22:41:36.180Z,4.50
2018-02-11T22:44:02.760Z,4.32
2018-02-11T22:46:29.369Z,4.40
2018-02-11T22:48:55.944Z,5.00
2018-02-11T22:51:22.660Z,4.18
2018-02-11T22:53:49.269Z,4.43
2018-02-11T22:56:15.855Z,5.55
2018-02-11T22:58:42.427Z,4.50
2018-02-11T23:01:09.251Z,4.10
2018-02-11T23:03:35.829Z,5.43
2018-02-11T23:06:02.529Z,3.62
2018-02-11T23:08:29.211Z,3.95
2018-02-11T23:10:55.768Z,3.50
2018-02-11T23:13:22.360Z,5.80
2018-02-11T23:15:49.058Z,4.40
2018-02-11T23:18:15.638Z,3.50
2018-02-11T23:20:42.209Z,5.78
2018-02-11T23:23:08.900Z,4.70
2018-02-11T23:25:35.492Z,4.60
2018-02-11T23:28:02.247Z,3.80
2018-02-11T23:30:28.842Z,5.00
2018-02-11T23:32:55.422Z,5.37
2018-02-11T23:35:22.006Z,3.47
2018-02-11T23:37:48.607Z,4.65
2018-02-11T23:40:15.179Z,3.85
2018-02-11T23:42:41.754Z,3.42
2018-02-11T23:45:08.495Z,5.25
2018-02-11T23:47:35.051Z,4.45
2018-02-11T23:50:01.630Z,5.55
2018-02-11T23:52:28.227Z,5.35
2018-02-11T23:54:54.796Z,4.65
2018-02-11T23:57:21.375Z,4.20
2018-02-11T23:59:47.973Z,4.30
